createdAt,value
2018-10-07T00:01:35.726Z,11.30
2018-10-07T00:04:04.092Z,11.30
2018-10-07T00:06:32.508Z,11.20
2018-10-07T00:09:00.644Z,11.10
2018-10-07T00:11:28.762Z,11.10
2018-10-07T00:13:58.188Z,11.00
2018-10-07T00:16:25.968Z,10.90
2018-10-07T00:18:54.255Z,10.90
2018-10-07T00:21:22.123Z,10.80
2018-10-07T00:23:50.558Z,10.80
2018-10-07T00:26:18.735Z,10.70
2018-10-07T00:28:46.619Z,10.70
2018-10-07T00:31:14.615Z,10.70
2018-10-07T00:33:42.488Z,10.60
2018-10-07T00:36:10.459Z,10.50
2018-10-07T00:38:39.050Z,10.40
2018-10-07T00:41:06.987Z,10.40
2018-10-07T00:43:35.181Z,10.30
2018-10-07T00:46:03.327Z,10.30
2018-10-07T00:48:31.402Z,10.30
2018-10-07T00:50:59.266Z,10.20
2018-10-07T00:53:27.042Z,10.20
2018-10-07T00:55:55.000Z,10.20
2018-10-07T00:58:23.374Z,10.20
2018-10-07T01:00:51.243Z,10.10
2018-10-07T01:03:19.500Z,10.10
2018-10-07T01:05:47.577Z,10.00
2018-10-07T01:08:15.472Z,10.00
2018-10-07T01:10:43.395Z,9.90
2018-10-07T01:13:11.841Z,9.90
2018-10-07T01:15:39.824Z,9.80
2018-10-07T01:18:07.729Z,9.80
2018-10-07T01:20:35.602Z,9.80
2018-10-07T01:23:03.463Z,9.80
2018-10-07T01:25:31.311Z,9.80
2018-10-07T01:27:59.317Z,9.80
2018-10-07T01:30:27.278Z,9.70
2018-10-07T01:32:55.481Z,9.70
2018-10-07T01:35:23.827Z,9.80
2018-10-07T01:37:51.588Z,9.70
2018-10-07T01:40:19.496Z,9.70
2018-10-07T01:42:47.664Z,9.60
2018-10-07T01:45:15.869Z,9.60
2018-10-07T01:47:44.526Z,9.60
2018-10-07T01:50:12.283Z,9.50
2018-10-07T01:52:40.661Z,9.40
2018-10-07T01:55:08.498Z,9.40
2018-10-07T01:57:36.435Z,9.40
2018-10-07T02:00:04.490Z,9.40
2018-10-07T02:02:32.519Z,9.40
2018-10-07T02:05:00.633Z,9.40
2018-10-07T02:07:28.603Z,9.30
2018-10-07T02:09:56.362Z,9.30
2018-10-07T02:12:24.345Z,9.30
2018-10-07T02:14:52.464Z,9.30
2018-10-07T02:17:22.862Z,9.30
2018-10-07T02:19:50.634Z,9.30
2018-10-07T02:22:18.473Z,9.30
2018-10-07T02:24:46.344Z,9.30
2018-10-07T02:27:14.308Z,9.20
2018-10-07T02:29:42.470Z,9.20
2018-10-07T02:32:10.698Z,9.20
2018-10-07T02:34:38.669Z,9.20
2018-10-07T02:37:06.607Z,9.30
2018-10-07T02:39:35.033Z,9.20
2018-10-07T02:42:04.001Z,9.20
2018-10-07T02:44:32.045Z,9.10
2018-10-07T02:47:01.042Z,9.10
2018-10-07T02:49:29.136Z,9.00
2018-10-07T02:51:57.339Z,9.00
2018-10-07T02:54:25.852Z,9.00
2018-10-07T02:56:53.561Z,9.00
2018-10-07T02:59:21.492Z,9.00
2018-10-07T03:01:49.477Z,9.00
2018-10-07T03:04:17.462Z,9.00
2018-10-07T03:06:45.287Z,9.00
2018-10-07T03:09:13.077Z,8.90
2018-10-07T03:11:41.172Z,8.90
2018-10-07T03:14:09.330Z,8.90
2018-10-07T03:16:37.887Z,8.90
2018-10-07T03:19:05.704Z,8.90
2018-10-07T03:21:33.753Z,8.90
2018-10-07T03:24:01.740Z,8.90
2018-10-07T03:26:29.718Z,8.90
2018-10-07T03:28:57.700Z,8.80
2018-10-07T03:31:25.523Z,8.80
2018-10-07T03:33:53.517Z,8.80
2018-10-07T03:36:21.615Z,8.70
2018-10-07T03:38:49.714Z,8.60
2018-10-07T03:41:17.862Z,8.60
2018-10-07T03:43:46.013Z,8.50
2018-10-07T03:46:13.818Z,8.40
2018-10-07T03:48:41.611Z,8.40
2018-10-07T03:51:09.583Z,8.40
2018-10-07T03:53:37.232Z,8.40
2018-10-07T03:56:05.142Z,8.40
2018-10-07T03:58:32.869Z,8.40
2018-10-07T04:01:00.682Z,8.40
2018-10-07T04:03:28.566Z,8.40
2018-10-07T04:05:56.521Z,8.30
2018-10-07T04:08:24.608Z,8.20
2018-10-07T04:10:53.309Z,8.30
2018-10-07T04:13:21.766Z,8.30
2018-10-07T04:15:50.492Z,8.30
2018-10-07T04:18:18.322Z,8.20
2018-10-07T04:20:46.102Z,8.20
2018-10-07T04:23:13.966Z,8.10
2018-10-07T04:25:42.175Z,8.10
2018-10-07T04:28:10.155Z,8.00
2018-10-07T04:30:38.157Z,8.10
2018-10-07T04:33:05.926Z,8.00
2018-10-07T04:35:33.816Z,8.00
2018-10-07T04:38:01.939Z,7.90
2018-10-07T04:40:29.656Z,7.90
2018-10-07T04:42:57.428Z,7.90
2018-10-07T04:45:25.296Z,7.90
2018-10-07T04:47:53.044Z,7.90
2018-10-07T04:50:21.084Z,7.80
2018-10-07T04:52:49.248Z,7.80
2018-10-07T04:55:16.992Z,7.80
2018-10-07T04:57:44.877Z,7.80
2018-10-07T05:00:13.051Z,7.80
2018-10-07T05:02:41.234Z,7.80
2018-10-07T05:05:09.214Z,7.80
2018-10-07T05:07:37.437Z,7.70
2018-10-07T05:10:16.467Z,7.70
2018-10-07T05:12:44.763Z,7.70
2018-10-07T05:15:12.982Z,7.70
2018-10-07T05:17:41.060Z,7.60
2018-10-07T05:20:09.169Z,7.60
2018-10-07T05:22:37.513Z,7.60
2018-10-07T05:25:05.769Z,7.50
2018-10-07T05:27:33.679Z,7.60
2018-10-07T05:30:01.486Z,7.50
2018-10-07T05:32:29.927Z,7.50
2018-10-07T05:34:57.752Z,7.50
2018-10-07T05:37:25.524Z,7.40
2018-10-07T05:39:53.321Z,7.40
2018-10-07T05:42:21.166Z,7.40
2018-10-07T05:44:49.090Z,7.40
2018-10-07T05:47:16.880Z,7.40
2018-10-07T05:49:44.770Z,7.40
2018-10-07T05:52:12.681Z,7.40
2018-10-07T05:54:40.692Z,7.50
2018-10-07T05:57:08.825Z,7.50
2018-10-07T05:59:36.983Z,7.50
2018-10-07T06:02:06.426Z,7.50
2018-10-07T06:04:40.574Z,7.50
2018-10-07T06:07:08.860Z,7.50
2018-10-07T06:09:37.413Z,7.50
2018-10-07T06:12:05.607Z,7.60
2018-10-07T06:14:45.099Z,7.60
2018-10-07T06:17:13.398Z,7.70
2018-10-07T06:19:41.333Z,7.80
2018-10-07T06:22:09.626Z,7.80
2018-10-07T06:24:37.707Z,7.90
2018-10-07T06:27:06.954Z,8.00
2018-10-07T06:29:35.650Z,8.00
2018-10-07T06:32:03.731Z,8.10
2018-10-07T06:34:31.836Z,8.20
2018-10-07T06:36:59.790Z,8.30
2018-10-07T06:39:27.792Z,8.30
2018-10-07T06:41:55.825Z,8.40
2018-10-07T06:44:23.772Z,8.50
2018-10-07T06:46:51.979Z,8.60
2018-10-07T06:49:20.267Z,8.60
2018-10-07T06:51:48.487Z,8.80
2018-10-07T06:54:16.485Z,8.90
2018-10-07T06:56:44.641Z,9.00
2018-10-07T06:59:12.570Z,9.20
2018-10-07T07:01:40.708Z,9.30
2018-10-07T07:04:08.537Z,9.40
2018-10-07T07:06:36.589Z,9.60
2018-10-07T07:09:06.324Z,9.70
2018-10-07T07:11:35.167Z,9.90
2018-10-07T07:14:03.155Z,10.10
2018-10-07T07:16:31.175Z,10.20
2018-10-07T07:18:59.133Z,10.40
2018-10-07T07:21:27.145Z,10.50
2018-10-07T07:23:54.976Z,10.70
2018-10-07T07:26:22.871Z,10.90
2018-10-07T07:28:50.623Z,11.00
2018-10-07T07:31:18.988Z,11.20
2018-10-07T07:33:46.889Z,11.30
2018-10-07T07:36:15.053Z,11.50
2018-10-07T07:38:42.924Z,11.70
2018-10-07T07:41:11.495Z,12.00
2018-10-07T07:43:39.945Z,12.50
2018-10-07T07:46:07.848Z,12.80
2018-10-07T07:48:35.736Z,12.90
2018-10-07T07:51:03.856Z,13.10
2018-10-07T07:53:31.921Z,13.10
2018-10-07T07:56:00.096Z,13.20
2018-10-07T07:58:28.279Z,13.20
2018-10-07T08:00:56.430Z,13.20
2018-10-07T08:03:24.452Z,13.20
2018-10-07T08:05:53.124Z,13.30
2018-10-07T08:08:21.135Z,13.30
2018-10-07T08:10:49.089Z,13.40
2018-10-07T08:13:16.997Z,13.50
2018-10-07T08:15:44.996Z,13.60
2018-10-07T08:18:13.007Z,13.60
2018-10-07T08:20:41.607Z,13.60
2018-10-07T08:23:10.038Z,13.60
2018-10-07T08:25:38.313Z,13.60
2018-10-07T08:28:07.697Z,13.70
2018-10-07T08:30:35.857Z,13.80
2018-10-07T08:33:03.959Z,13.70
2018-10-07T08:35:32.291Z,13.70
2018-10-07T08:38:00.217Z,13.80
2018-10-07T08:40:27.994Z,13.80
2018-10-07T08:42:55.969Z,13.80
2018-10-07T08:45:24.047Z,13.80
2018-10-07T08:47:52.309Z,13.80
2018-10-07T08:50:20.255Z,13.80
2018-10-07T08:52:48.405Z,13.80
2018-10-07T08:55:18.693Z,13.70
2018-10-07T08:57:47.047Z,13.70
2018-10-07T09:00:15.520Z,13.70
2018-10-07T09:02:45.123Z,13.70
2018-10-07T09:05:13.372Z,13.70
2018-10-07T09:07:42.388Z,13.60
2018-10-07T09:10:10.411Z,13.60
2018-10-07T09:12:38.518Z,13.60
2018-10-07T09:15:07.313Z,13.60
2018-10-07T09:17:35.386Z,13.60
2018-10-07T09:20:03.780Z,13.50
2018-10-07T09:22:32.862Z,13.50
2018-10-07T09:25:02.564Z,13.50
2018-10-07T09:27:30.895Z,13.50
2018-10-07T09:29:59.949Z,13.50
2018-10-07T09:32:28.478Z,13.60
2018-10-07T09:34:56.828Z,13.60
2018-10-07T09:37:25.088Z,13.60
2018-10-07T09:39:53.719Z,13.60
2018-10-07T09:42:22.010Z,13.60
2018-10-07T09:44:50.127Z,13.60
2018-10-07T09:47:18.244Z,13.60
2018-10-07T09:49:46.573Z,13.60
2018-10-07T09:52:15.243Z,13.60
2018-10-07T09:54:43.554Z,13.60
2018-10-07T09:57:12.979Z,13.60
2018-10-07T09:59:41.226Z,13.60
2018-10-07T10:02:09.390Z,13.60
2018-10-07T10:04:37.468Z,13.60
2018-10-07T10:07:05.748Z,13.50
2018-10-07T10:09:34.164Z,13.50
2018-10-07T10:12:02.367Z,13.40
2018-10-07T10:14:31.897Z,13.40
2018-10-07T10:17:07.329Z,13.40
2018-10-07T10:19:42.899Z,13.40
2018-10-07T10:22:18.269Z,13.40
2018-10-07T10:24:57.486Z,13.40
2018-10-07T10:28:33.238Z,13.40
2018-10-07T10:31:05.809Z,13.40
2018-10-07T10:33:35.930Z,13.40
2018-10-07T10:37:12.153Z,13.40
2018-10-07T10:39:45.927Z,13.30
2018-10-07T10:42:31.945Z,13.30
2018-10-07T10:45:00.715Z,13.30
2018-10-07T10:47:33.910Z,13.40
2018-10-07T10:50:12.984Z,13.40
2018-10-07T10:53:54.018Z,13.40
2018-10-07T10:56:27.881Z,13.40
2018-10-07T11:01:11.822Z,13.40
2018-10-07T11:03:46.365Z,13.50
2018-10-07T11:06:28.134Z,13.40
2018-10-07T11:09:07.522Z,13.40
2018-10-07T11:11:47.268Z,13.40
2018-10-07T11:14:38.819Z,13.50
2018-10-07T11:19:22.860Z,13.50
2018-10-07T11:24:05.344Z,13.50
2018-10-07T11:26:46.308Z,13.60
2018-10-07T11:29:56.120Z,13.50
2018-10-07T11:32:37.798Z,13.50
2018-10-07T11:37:19.738Z,13.50
2018-10-07T11:40:55.258Z,13.50
2018-10-07T11:43:30.236Z,13.40
2018-10-07T11:46:05.232Z,13.50
2018-10-07T11:49:42.163Z,13.50
2018-10-07T11:52:26.436Z,13.50
2018-10-07T11:54:54.441Z,13.50
2018-10-07T11:57:22.625Z,13.50
2018-10-07T11:59:51.001Z,13.50
2018-10-07T12:02:19.110Z,13.50
2018-10-07T12:04:48.195Z,13.50
2018-10-07T12:07:16.582Z,13.50
2018-10-07T12:09:44.728Z,13.50
2018-10-07T12:12:13.156Z,13.50
2018-10-07T12:14:41.484Z,13.40
2018-10-07T12:17:12.655Z,13.40
2018-10-07T12:19:41.468Z,13.30
2018-10-07T12:22:09.909Z,13.20
2018-10-07T12:24:38.697Z,13.10
2018-10-07T12:27:07.825Z,12.90
2018-10-07T12:29:42.325Z,12.80
2018-10-07T12:32:10.992Z,12.70
2018-10-07T12:34:38.942Z,12.50
2018-10-07T12:37:06.924Z,12.50
2018-10-07T12:39:35.742Z,12.50
2018-10-07T12:42:03.804Z,12.40
2018-10-07T12:44:31.803Z,12.30
2018-10-07T12:46:59.788Z,12.30
2018-10-07T12:49:29.073Z,12.20
2018-10-07T12:51:57.157Z,12.20
2018-10-07T12:54:25.298Z,12.10
2018-10-07T12:56:53.264Z,12.10
2018-10-07T12:59:21.393Z,12.00
2018-10-07T13:01:49.134Z,12.00
2018-10-07T13:04:18.085Z,11.90
2018-10-07T13:06:46.141Z,11.90
2018-10-07T13:09:14.813Z,11.90
2018-10-07T13:11:43.334Z,11.80
2018-10-07T13:14:13.870Z,11.80
2018-10-07T13:16:41.858Z,11.80
2018-10-07T13:19:09.943Z,11.80
2018-10-07T13:21:38.124Z,11.80
2018-10-07T13:24:06.674Z,11.90
2018-10-07T13:26:35.616Z,11.80
2018-10-07T13:29:03.871Z,11.80
2018-10-07T13:31:31.797Z,11.70
2018-10-07T13:33:59.592Z,11.70
2018-10-07T13:36:27.559Z,11.60
2018-10-07T13:38:55.836Z,11.60
2018-10-07T13:41:23.903Z,11.60
2018-10-07T13:43:51.954Z,11.50
2018-10-07T13:46:20.289Z,11.50
2018-10-07T13:48:48.239Z,11.50
2018-10-07T13:51:16.838Z,11.50
2018-10-07T13:53:44.790Z,11.50
2018-10-07T13:56:13.177Z,11.50
2018-10-07T13:58:41.466Z,11.40
2018-10-07T14:01:09.345Z,11.40
2018-10-07T14:03:37.219Z,11.20
2018-10-07T14:06:06.057Z,11.20
2018-10-07T14:08:35.099Z,11.10
2018-10-07T14:11:04.558Z,11.00
2018-10-07T14:13:33.305Z,11.00
2018-10-07T14:16:01.642Z,11.00
2018-10-07T14:18:29.747Z,11.00
2018-10-07T14:20:57.897Z,11.00
2018-10-07T14:23:25.926Z,10.90
2018-10-07T14:25:53.959Z,10.90
2018-10-07T14:28:22.076Z,10.90
2018-10-07T14:30:50.215Z,10.80
2018-10-07T14:33:20.708Z,10.80
2018-10-07T14:35:48.684Z,10.80
2018-10-07T14:38:16.674Z,10.70
2018-10-07T14:40:45.086Z,10.70
2018-10-07T14:43:13.100Z,10.60
2018-10-07T14:45:41.331Z,10.50
2018-10-07T14:48:09.606Z,10.50
2018-10-07T14:50:37.960Z,10.50
2018-10-07T14:53:06.571Z,10.50
2018-10-07T14:55:34.680Z,10.50
2018-10-07T14:58:03.113Z,10.40
2018-10-07T15:00:31.287Z,10.40
2018-10-07T15:03:00.250Z,10.40
2018-10-07T15:05:28.615Z,10.40
2018-10-07T15:07:56.943Z,10.40
2018-10-07T15:10:25.145Z,10.40
2018-10-07T15:12:53.037Z,10.30
2018-10-07T15:15:21.109Z,10.30
2018-10-07T15:17:49.050Z,10.30
2018-10-07T15:20:17.897Z,10.30
2018-10-07T15:22:46.676Z,10.20
2018-10-07T15:25:15.406Z,10.30
2018-10-07T15:27:43.443Z,10.30
2018-10-07T15:30:11.631Z,10.30
2018-10-07T15:32:40.031Z,10.20
2018-10-07T15:35:08.573Z,10.20
2018-10-07T15:37:37.609Z,10.20
2018-10-07T15:40:06.379Z,10.10
2018-10-07T15:42:35.641Z,10.10
2018-10-07T15:45:03.848Z,10.10
2018-10-07T15:47:32.432Z,10.10
2018-10-07T15:51:03.480Z,10.10
2018-10-07T15:53:31.833Z,10.00
2018-10-07T15:55:59.868Z,10.10
2018-10-07T15:58:27.949Z,10.00
2018-10-07T16:00:56.022Z,10.00
2018-10-07T16:03:24.065Z,10.00
2018-10-07T16:05:52.286Z,10.00
2018-10-07T16:08:20.488Z,10.00
2018-10-07T16:10:49.034Z,10.00
2018-10-07T16:13:18.564Z,10.00
2018-10-07T16:15:46.602Z,10.00
2018-10-07T16:18:16.449Z,10.00
2018-10-07T16:20:44.494Z,9.90
2018-10-07T16:23:12.636Z,9.90
2018-10-07T16:25:40.961Z,9.90
2018-10-07T16:28:09.326Z,9.90
2018-10-07T16:30:38.222Z,9.90
2018-10-07T16:33:06.339Z,9.90
2018-10-07T16:35:35.017Z,9.90
2018-10-07T16:38:03.268Z,9.90
2018-10-07T16:40:31.617Z,9.90
2018-10-07T16:42:59.791Z,9.90
2018-10-07T16:45:27.796Z,9.90
2018-10-07T16:47:55.860Z,9.90
2018-10-07T16:50:24.760Z,9.80
2018-10-07T16:52:53.208Z,9.80
2018-10-07T16:55:21.672Z,9.80
2018-10-07T16:57:49.875Z,9.80
2018-10-07T17:00:18.287Z,9.80
2018-10-07T17:02:47.091Z,9.70
2018-10-07T17:05:15.365Z,9.70
2018-10-07T17:07:43.786Z,9.70
2018-10-07T17:10:13.376Z,9.60
2018-10-07T17:12:47.290Z,9.60
2018-10-07T17:15:16.233Z,9.60
2018-10-07T17:17:45.779Z,9.60
2018-10-07T17:20:14.799Z,9.50
2018-10-07T17:22:47.059Z,9.60
2018-10-07T17:25:16.995Z,9.50
2018-10-07T17:27:47.547Z,9.50
2018-10-07T17:30:18.240Z,9.40
2018-10-07T17:32:49.362Z,9.30
2018-10-07T17:35:20.632Z,9.30
2018-10-07T17:37:50.672Z,9.30
2018-10-07T17:40:20.505Z,9.20
2018-10-07T17:42:51.064Z,9.10
2018-10-07T17:45:22.871Z,9.10
2018-10-07T17:47:52.412Z,9.10
2018-10-07T17:50:20.476Z,9.10
2018-10-07T17:52:49.530Z,9.10
2018-10-07T17:55:18.086Z,9.10
2018-10-07T17:57:46.663Z,9.10
2018-10-07T18:00:15.417Z,9.10
2018-10-07T18:02:44.930Z,9.10
2018-10-07T18:05:13.351Z,9.10
2018-10-07T18:07:41.637Z,9.20
2018-10-07T18:10:10.266Z,9.20
2018-10-07T18:12:38.907Z,9.20
2018-10-07T18:15:08.259Z,9.20
2018-10-07T18:17:36.337Z,9.30
2018-10-07T18:20:04.770Z,9.30
2018-10-07T18:22:34.966Z,9.30
2018-10-07T18:25:03.095Z,9.30
2018-10-07T18:27:32.001Z,9.30
2018-10-07T18:30:00.145Z,9.30
2018-10-07T18:32:29.102Z,9.30
2018-10-07T18:34:57.241Z,9.30
2018-10-07T18:37:26.613Z,9.30
2018-10-07T18:39:54.588Z,9.30
2018-10-07T18:42:24.413Z,9.30
2018-10-07T18:44:53.104Z,9.30
2018-10-07T18:47:22.464Z,9.30
2018-10-07T18:49:53.243Z,9.30
2018-10-07T18:52:21.295Z,9.30
2018-10-07T18:54:50.673Z,9.20
2018-10-07T18:57:18.892Z,9.30
2018-10-07T18:59:49.355Z,9.30
2018-10-07T19:02:18.752Z,9.30
2018-10-07T19:04:47.736Z,9.30
2018-10-07T19:07:16.325Z,9.30
2018-10-07T19:09:44.996Z,9.10
2018-10-07T19:12:13.258Z,9.10
2018-10-07T19:14:42.760Z,9.10
2018-10-07T19:17:10.973Z,9.20
2018-10-07T19:19:39.962Z,9.20
2018-10-07T19:22:09.552Z,9.20
2018-10-07T19:24:37.738Z,9.10
2018-10-07T19:27:05.742Z,9.10
2018-10-07T19:29:35.299Z,9.10
2018-10-07T19:32:03.387Z,9.10
2018-10-07T19:34:32.834Z,9.20
2018-10-07T19:37:01.551Z,9.20
2018-10-07T19:39:30.387Z,9.20
2018-10-07T19:41:58.708Z,9.20
2018-10-07T19:44:26.987Z,9.20
2018-10-07T19:46:55.401Z,9.20
2018-10-07T19:49:24.096Z,9.20
2018-10-07T19:51:52.966Z,9.20
2018-10-07T19:54:21.682Z,9.20
2018-10-07T19:56:50.055Z,9.20
2018-10-07T19:59:18.248Z,9.20
2018-10-07T20:01:46.714Z,9.20
2018-10-07T20:04:16.126Z,9.20
2018-10-07T20:06:44.626Z,9.10
2018-10-07T20:09:13.005Z,9.10
2018-10-07T20:11:41.865Z,9.10
2018-10-07T20:14:10.163Z,9.10
2018-10-07T20:16:39.475Z,9.10
2018-10-07T20:19:08.255Z,9.10
2018-10-07T20:21:37.105Z,9.10
2018-10-07T20:24:06.418Z,9.10
2018-10-07T20:26:36.187Z,9.20
2018-10-07T20:29:04.265Z,9.10
2018-10-07T20:31:32.150Z,9.10
2018-10-07T20:34:00.162Z,9.10
2018-10-07T20:36:28.118Z,9.10
2018-10-07T20:38:56.347Z,9.10
2018-10-07T20:41:25.467Z,9.20
2018-10-07T20:43:53.375Z,9.10
2018-10-07T20:46:21.405Z,9.10
2018-10-07T20:48:49.382Z,9.10
2018-10-07T20:51:18.126Z,9.00
2018-10-07T20:53:46.161Z,9.00
2018-10-07T20:56:14.654Z,9.00
2018-10-07T20:58:42.727Z,9.00
2018-10-07T21:01:10.761Z,9.00
2018-10-07T21:03:38.835Z,9.10
2018-10-07T21:06:06.978Z,9.10
2018-10-07T21:08:35.216Z,9.10
2018-10-07T21:11:03.294Z,9.00
2018-10-07T21:13:31.815Z,8.90
2018-10-07T21:15:59.789Z,9.00
2018-10-07T21:18:27.663Z,9.00
2018-10-07T21:20:55.641Z,9.00
2018-10-07T21:23:24.687Z,9.00
2018-10-07T21:25:52.684Z,9.00
2018-10-07T21:28:20.647Z,9.00
2018-10-07T21:30:49.456Z,9.00
2018-10-07T21:33:17.409Z,9.00
2018-10-07T21:35:45.347Z,8.90
2018-10-07T21:38:13.440Z,9.00
2018-10-07T21:40:42.085Z,9.00
2018-10-07T21:43:16.668Z,9.00
2018-10-07T21:45:44.559Z,9.00
2018-10-07T21:48:12.407Z,9.00
2018-10-07T21:50:40.368Z,9.00
2018-10-07T21:53:08.297Z,8.90
2018-10-07T21:55:36.325Z,8.90
2018-10-07T21:58:04.997Z,8.90
2018-10-07T22:00:33.336Z,8.90
2018-10-07T22:03:01.462Z,8.90
2018-10-07T22:05:29.595Z,8.90
2018-10-07T22:07:57.604Z,8.90
2018-10-07T22:10:25.885Z,9.00
2018-10-07T22:12:53.943Z,9.00
2018-10-07T22:15:22.280Z,9.00
2018-10-07T22:17:50.464Z,9.00
2018-10-07T22:20:18.939Z,9.00
2018-10-07T22:22:47.156Z,9.00
2018-10-07T22:25:15.204Z,9.00
2018-10-07T22:27:46.701Z,9.00
2018-10-07T22:30:14.986Z,9.00
2018-10-07T22:32:42.865Z,9.00
2018-10-07T22:35:10.828Z,9.00
2018-10-07T22:37:38.715Z,8.90
2018-10-07T22:40:06.626Z,8.90
2018-10-07T22:42:34.445Z,8.90
2018-10-07T22:45:02.223Z,9.00
2018-10-07T22:47:30.081Z,8.90
2018-10-07T22:49:58.360Z,8.90
2018-10-07T22:52:26.232Z,8.90
2018-10-07T22:54:54.304Z,8.90
2018-10-07T22:57:26.233Z,8.90
2018-10-07T22:59:54.212Z,8.90
2018-10-07T23:02:22.616Z,8.90
2018-10-07T23:04:51.343Z,8.90
2018-10-07T23:07:19.263Z,8.90
2018-10-07T23:09:47.098Z,8.90
2018-10-07T23:12:15.048Z,8.90
2018-10-07T23:14:43.101Z,8.90
2018-10-07T23:17:11.048Z,8.90
2018-10-07T23:19:38.906Z,8.90
2018-10-07T23:22:07.123Z,8.90
2018-10-07T23:24:35.099Z,8.80
2018-10-07T23:27:03.058Z,8.80
2018-10-07T23:29:31.113Z,8.80
2018-10-07T23:31:59.153Z,8.80
2018-10-07T23:34:26.985Z,8.80
2018-10-07T23:36:54.912Z,8.80
2018-10-07T23:39:22.863Z,8.80
2018-10-07T23:41:51.171Z,8.80
2018-10-07T23:44:19.101Z,8.90
2018-10-07T23:46:47.022Z,8.90
2018-10-07T23:49:14.928Z,8.90
2018-10-07T23:51:43.280Z,8.80
2018-10-07T23:54:11.163Z,8.80
2018-10-07T23:56:39.039Z,8.90
2018-10-07T23:59:07.099Z,8.80
